ADDS METAR Data INFO
IDs: Format: Raw Decoded Include TAF

Data at: 1531 UTC 18 Jun 2018

METAR for:KMLB (Melbourne Intl, FL, US)
Text:KMLB 181453Z 08008KT 10SM FEW030 31/24 A3013 RMK AO2 SLP201 T03060239 50004
Temperature: 30.6°C ( 87°F)
Dewpoint: 23.9°C ( 75°F) [RH = 68%]
Pressure (altimeter):30.13 inches Hg (1020.4 mb) [Sea level pressure: 1020.1 mb]
Winds:from the E (80 degrees) at 9 MPH (8 knots; 4.1 m/s)
Visibility:10 or more sm (16+ km)
Ceiling:at least 12,000 feet AGL
Clouds: few clouds at 3000 feet AGL